Time;durP1;ratioP1;P1;durP2;ratioP2;P2;SDS_P1;SDS_P2;PMS_P1;PMS_P2;Temp;Humidity;BMP_temperature;BMP_pressure;BME280_temperature;BME280_humidity;BME280_pressure;Samples;Min_cycle;Max_cycle;Signal;HPM_P1;HPM_P2
2023/10/08 00:01:19;;;;;;;17.98;4.80;;;19.30;78.10;;;;;;5031363;28;20025;-66
2023/10/08 00:03:50;;;;;;;14.65;4.55;;;19.30;78.20;;;;;;5032512;28;20033;-66
2023/10/08 00:06:19;;;;;;;;;;;19.30;78.30;;;;;;5044777;28;20355;-67
2023/10/08 00:08:45;;;;;;;11.70;4.45;;;19.30;78.20;;;;;;5031336;28;19979;-67
2023/10/08 00:11:11;;;;;;;14.35;3.70;;;19.30;78.30;;;;;;5031577;28;20132;-66
2023/10/08 00:13:40;;;;;;;12.70;4.18;;;19.30;78.40;;;;;;5031293;28;20022;-67
2023/10/08 00:16:10;;;;;;;11.20;3.83;;;19.30;78.50;;;;;;5032839;28;20033;-66
2023/10/08 00:18:38;;;;;;;13.70;4.63;;;19.30;78.60;;;;;;5034602;28;20453;-66
2023/10/08 00:23:39;;;;;;;17.30;4.82;;;19.30;78.90;;;;;;5037616;28;20027;-66
2023/10/08 00:26:39;;;;;;;15.95;4.75;;;19.30;79.00;;;;;;5038118;28;20116;-67
2023/10/08 00:29:21;;;;;;;14.45;4.72;;;19.30;79.00;;;;;;5057539;28;20120;-66
2023/10/08 00:31:49;;;;;;;13.77;4.72;;;19.20;79.00;;;;;;5057215;28;20140;-66
2023/10/08 00:34:19;;;;;;;12.48;4.53;;;19.30;79.20;;;;;;5051800;28;20029;-66
2023/10/08 00:36:47;;;;;;;12.43;4.38;;;19.30;79.90;;;;;;5040832;28;20051;-66
2023/10/08 00:39:14;;;;;;;14.27;4.40;;;19.20;79.30;;;;;;5056611;28;20029;-66
2023/10/08 00:41:44;;;;;;;13.32;4.55;;;19.30;79.50;;;;;;5049014;28;20461;-67
2023/10/08 00:44:22;;;;;;;15.45;4.50;;;19.30;79.60;;;;;;5056303;28;20055;-67
2023/10/08 00:46:48;;;;;;;14.90;4.93;;;19.20;79.60;;;;;;5057444;28;20037;-66
2023/10/08 00:49:25;;;;;;;14.38;4.93;;;19.20;79.70;;;;;;5053908;28;20413;-67
2023/10/08 00:52:01;;;;;;;15.68;4.90;;;19.20;79.80;;;;;;5039578;28;20427;-66
2023/10/08 00:54:32;;;;;;;15.38;4.93;;;19.20;79.90;;;;;;5056853;28;20476;-67
2023/10/08 00:57:04;;;;;;;15.55;4.85;;;19.20;79.90;;;;;;5057810;28;20017;-67
2023/10/08 00:59:46;;;;;;;15.57;4.82;;;19.20;80.00;;;;;;5053824;28;20514;-66
2023/10/08 01:02:19;;;;;;;12.20;4.45;;;19.20;80.00;;;;;;5038054;28;20033;-67
2023/10/08 01:04:46;;;;;;;15.10;4.55;;;19.20;80.10;;;;;;5038415;28;20060;-66
2023/10/08 01:07:18;;;;;;;16.17;4.93;;;19.20;80.20;;;;;;5038473;28;20028;-66
2023/10/08 01:09:50;;;;;;;13.05;4.75;;;19.20;80.20;;;;;;5035937;28;20052;-67
2023/10/08 01:12:26;;;;;;;14.77;5.40;;;19.20;80.30;;;;;;5037269;28;20315;-67
2023/10/08 01:14:55;;;;;;;14.60;4.32;;;19.20;80.40;;;;;;5032568;28;20112;-66
2023/10/08 01:17:26;;;;;;;12.50;4.68;;;19.20;80.40;;;;;;5040241;28;20021;-66
2023/10/08 01:19:56;;;;;;;13.73;4.63;;;19.20;80.60;;;;;;5040138;28;20452;-67
2023/10/08 01:22:22;;;;;;;12.93;5.05;;;19.20;80.60;;;;;;5038440;28;20366;-66
2023/10/08 01:24:49;;;;;;;9.75;3.78;;;19.10;80.60;;;;;;5037101;28;20032;-67
2023/10/08 01:27:20;;;;;;;16.73;4.70;;;19.20;80.70;;;;;;5043305;28;20025;-66
2023/10/08 01:29:46;;;;;;;12.50;4.63;;;19.10;80.70;;;;;;5050304;28;20124;-67
2023/10/08 01:32:16;;;;;;;12.02;4.80;;;19.20;80.80;;;;;;5047241;28;20037;-67
2023/10/08 01:34:45;;;;;;;14.25;5.35;;;19.10;80.90;;;;;;5034180;28;20040;-66
2023/10/08 01:37:18;;;;;;;16.80;5.00;;;19.10;81.00;;;;;;5035491;28;20033;-67
2023/10/08 01:39:45;;;;;;;15.68;5.28;;;19.10;81.10;;;;;;5032565;28;20041;-67
2023/10/08 01:42:18;;;;;;;11.85;3.97;;;19.10;81.10;;;;;;5042216;28;20033;-67
2023/10/08 01:44:48;;;;;;;14.48;5.15;;;19.10;81.10;;;;;;5032033;28;20033;-66
2023/10/08 01:47:16;;;;;;;12.30;4.37;;;19.10;81.20;;;;;;5042598;28;20069;-66
2023/10/08 01:49:44;;;;;;;18.42;4.88;;;19.10;81.20;;;;;;5048597;28;20041;-66
2023/10/08 01:52:46;;;;;;;15.23;5.05;;;19.10;81.30;;;;;;5034152;28;20037;-66
2023/10/08 01:55:02;;;;;;;19.10;5.20;;;19.10;81.30;;;;;;5032358;28;20040;-66
2023/10/08 01:57:28;;;;;;;16.50;4.97;;;19.10;81.40;;;;;;5041186;28;20022;-66
2023/10/08 01:59:54;;;;;;;17.60;6.07;;;19.00;81.40;;;;;;5032157;28;20514;-66
2023/10/08 02:02:21;;;;;;;12.80;4.78;;;19.00;82.10;;;;;;5035083;28;20129;-66
2023/10/08 02:04:47;;;;;;;15.27;5.32;;;19.00;81.50;;;;;;5034021;28;20021;-66
2023/10/08 02:07:13;;;;;;;14.25;4.32;;;19.00;81.50;;;;;;5034754;28;20028;-66
2023/10/08 02:09:40;;;;;;;15.75;4.65;;;19.00;81.60;;;;;;5033780;28;20469;-67
2023/10/08 02:12:06;;;;;;;12.93;5.38;;;19.00;81.60;;;;;;5033544;28;20026;-67
2023/10/08 02:14:35;;;;;;;18.05;5.00;;;19.00;81.60;;;;;;5033460;28;20120;-66
2023/10/08 02:17:06;;;;;;;15.65;5.15;;;19.00;81.70;;;;;;5033063;28;20105;-66
2023/10/08 02:19:32;;;;;;;18.55;4.72;;;19.00;81.80;;;;;;5047816;28;20033;-66
2023/10/08 02:21:58;;;;;;;15.70;4.80;;;19.00;81.80;;;;;;5033709;28;20108;-67
2023/10/08 02:24:25;;;;;;;13.57;5.28;;;19.00;81.80;;;;;;5033841;28;20549;-66
2023/10/08 02:26:52;;;;;;;15.80;5.43;;;19.00;81.90;;;;;;5032111;28;20025;-66
2023/10/08 02:29:17;;;;;;;13.25;5.07;;;19.00;82.00;;;;;;5034349;28;20042;-66
2023/10/08 02:31:43;;;;;;;18.05;5.03;;;19.00;82.00;;;;;;5032717;28;20408;-66
2023/10/08 02:34:09;;;;;;;17.85;5.53;;;18.90;82.10;;;;;;5046761;28;20513;-66
2023/10/08 02:36:42;;;;;;;15.13;5.38;;;19.00;82.20;;;;;;5032618;28;20037;-66
2023/10/08 02:39:21;;;;;;;18.13;5.25;;;19.00;82.20;;;;;;5032692;28;20053;-66
2023/10/08 02:41:48;;;;;;;21.70;6.40;;;18.90;82.20;;;;;;5031015;28;20481;-67
2023/10/08 02:44:17;;;;;;;18.38;6.38;;;18.90;82.20;;;;;;5018181;28;20071;-67
2023/10/08 02:46:47;;;;;;;14.85;5.38;;;18.90;82.30;;;;;;5046475;28;20025;-66
2023/10/08 02:49:19;;;;;;;15.45;6.32;;;18.90;82.30;;;;;;5047667;28;20036;-67
2023/10/08 02:51:45;;;;;;;24.20;8.38;;;18.90;82.40;;;;;;5032036;28;20413;-66
2023/10/08 02:54:17;;;;;;;19.60;8.82;;;18.90;82.40;;;;;;5032284;28;20064;-66
2023/10/08 02:56:51;;;;;;;23.17;10.57;;;18.90;82.50;;;;;;5052115;28;20116;-66
2023/10/08 02:59:18;;;;;;;26.67;11.70;;;18.80;82.40;;;;;;5028093;28;20027;-66
2023/10/08 03:01:44;;;;;;;24.23;11.05;;;18.90;82.50;;;;;;5033100;28;20029;-66
2023/10/08 03:04:19;;;;;;;29.63;13.27;;;18.90;82.50;;;;;;5035155;28;20026;-66
2023/10/08 03:06:49;;;;;;;29.27;12.43;;;18.90;82.60;;;;;;5032189;28;20375;-67
2023/10/08 03:09:31;;;;;;;30.23;13.88;;;18.90;82.60;;;;;;5027724;28;20455;-66
2023/10/08 03:12:04;;;;;;;30.17;14.02;;;18.90;82.60;;;;;;5031872;28;20095;-66
2023/10/08 03:14:41;;;;;;;31.63;13.88;;;18.90;82.70;;;;;;5018629;28;20021;-66
2023/10/08 03:17:09;;;;;;;31.35;14.48;;;18.80;82.60;;;;;;5035393;28;20022;-66
2023/10/08 03:19:36;;;;;;;30.10;13.55;;;18.90;82.70;;;;;;5034672;28;20014;-67
2023/10/08 03:22:04;;;;;;;28.27;13.13;;;18.90;82.70;;;;;;5016794;28;20349;-67
2023/10/08 03:27:06;;;;;;;24.20;10.48;;;18.90;82.80;;;;;;5033959;28;20037;-67
2023/10/08 03:29:41;;;;;;;21.98;10.48;;;18.80;82.80;;;;;;5034065;28;20462;-66
2023/10/08 03:32:16;;;;;;;22.35;9.55;;;18.80;82.80;;;;;;5032001;28;20377;-67
2023/10/08 03:34:47;;;;;;;23.58;9.43;;;18.80;82.70;;;;;;5033131;28;20022;-67
2023/10/08 03:37:20;;;;;;;21.55;8.68;;;18.80;82.80;;;;;;5015568;28;20021;-66
2023/10/08 03:40:24;;;;;;;19.00;7.82;;;18.80;82.90;;;;;;5030217;28;20033;-67
2023/10/08 03:42:41;;;;;;;19.20;6.75;;;18.80;82.80;;;;;;5044819;28;20030;-67
2023/10/08 03:45:11;;;;;;;17.38;7.72;;;18.80;82.80;;;;;;5032501;28;20028;-67
2023/10/08 03:47:38;;;;;;;17.55;6.93;;;18.80;82.80;;;;;;5031900;28;20056;-67
2023/10/08 03:50:06;;;;;;;15.40;7.05;;;18.80;82.80;;;;;;5033951;28;20438;-67
2023/10/08 03:52:36;;;;;;;16.23;6.95;;;18.80;82.80;;;;;;5031506;28;20513;-67
2023/10/08 03:57:48;;;;;;;17.55;7.15;;;18.70;82.80;;;;;;5030274;28;20912;-67
2023/10/08 04:00:18;;;;;;;16.13;6.90;;;18.70;82.80;;;;;;5041121;28;20056;-67
2023/10/08 04:02:55;;;;;;;;;;;18.70;82.80;;;;;;5033907;28;20021;-67
2023/10/08 04:05:27;;;;;;;14.77;6.82;;;18.70;82.80;;;;;;5014796;28;20269;-67
2023/10/08 04:13:08;;;;;;;16.45;7.05;;;18.60;82.80;;;;;;5031232;28;20029;-67
2023/10/08 04:15:38;;;;;;;16.38;6.60;;;18.60;82.90;;;;;;5045741;28;20112;-67
2023/10/08 04:18:04;;;;;;;18.63;7.15;;;18.60;82.90;;;;;;5031842;28;20025;-66
2023/10/08 04:20:33;;;;;;;16.05;6.25;;;18.60;82.90;;;;;;5032184;28;20473;-67
2023/10/08 04:23:04;;;;;;;19.90;7.15;;;18.60;82.90;;;;;;5030954;28;20025;-67
2023/10/08 04:25:31;;;;;;;13.10;6.88;;;18.60;82.90;;;;;;5034774;28;20050;-67
2023/10/08 04:27:59;;;;;;;14.80;6.78;;;18.60;82.90;;;;;;5028930;28;20111;-67
2023/10/08 04:30:32;;;;;;;19.08;7.80;;;18.70;83.00;;;;;;5037487;28;20044;-67
2023/10/08 04:33:12;;;;;;;13.98;5.80;;;18.70;83.00;;;;;;5032631;28;20018;-67
2023/10/08 04:35:55;;;;;;;13.90;5.55;;;18.60;82.80;;;;;;5035830;28;20454;-67
2023/10/08 04:38:25;;;;;;;15.52;5.95;;;18.60;82.60;;;;;;5031963;28;20025;-67
2023/10/08 04:40:51;;;;;;;14.38;5.50;;;18.60;82.30;;;;;;5036096;28;20028;-67
2023/10/08 04:43:27;;;;;;;13.93;5.22;;;18.60;82.10;;;;;;5032028;28;20035;-67
2023/10/08 04:46:06;;;;;;;11.30;4.30;;;18.50;81.60;;;;;;5033606;28;20091;-67
2023/10/08 04:48:33;;;;;;;13.00;4.07;;;18.40;81.40;;;;;;5029180;28;20039;-67
2023/10/08 04:50:59;;;;;;;9.10;4.05;;;18.30;81.40;;;;;;5038104;28;20454;-67
2023/10/08 04:53:36;;;;;;;11.10;3.58;;;18.30;81.40;;;;;;5031073;28;20499;-67
2023/10/08 04:56:19;;;;;;;11.02;3.75;;;18.20;81.10;;;;;;5033812;28;20096;-67
2023/10/08 04:58:46;;;;;;;11.93;3.72;;;18.20;81.00;;;;;;5030513;28;21435;-67
2023/10/08 05:01:17;;;;;;;10.73;3.40;;;18.10;80.90;;;;;;5045732;28;20468;-67
2023/10/08 05:11:56;;;;;;;11.95;3.80;;;18.00;80.40;;;;;;5039649;28;20442;-67
2023/10/08 05:22:43;;;;;;;13.52;3.78;;;17.90;80.30;;;;;;5036444;28;20029;-66
2023/10/08 05:33:12;;;;;;;8.10;3.25;;;17.90;80.00;;;;;;5036227;28;20037;-66
2023/10/08 05:38:38;;;;;;;9.23;3.47;;;17.80;80.00;;;;;;5036281;28;20356;-67
2023/10/08 05:41:05;;;;;;;8.15;3.50;;;17.80;80.00;;;;;;5047700;28;20084;-66
2023/10/08 05:57:14;;;;;;;7.68;2.85;;;17.60;79.40;;;;;;5042673;28;20033;-67
2023/10/08 06:00:29;;;;;;;10.57;3.10;;;17.60;79.30;;;;;;5054358;28;20339;-67
2023/10/08 06:07:50;;;;;;;9.48;3.28;;;17.60;79.20;;;;;;5056665;28;20357;-67
2023/10/08 06:15:51;;;;;;;8.00;3.05;;;17.40;78.80;;;;;;5060429;28;19956;-67
2023/10/08 06:18:28;;;;;;;10.50;2.67;;;17.40;78.80;;;;;;5036392;28;20116;-67
2023/10/08 06:20:58;;;;;;;11.13;3.67;;;17.40;78.50;;;;;;5046031;28;20028;-67
2023/10/08 06:23:26;;;;;;;11.90;2.88;;;17.40;78.40;;;;;;5053182;28;20025;-67
2023/10/08 06:28:57;;;;;;;7.72;2.42;;;17.40;78.20;;;;;;5029681;28;20454;-67
2023/10/08 06:31:24;;;;;;;7.03;2.38;;;17.30;78.00;;;;;;5044025;28;20060;-67
2023/10/08 06:33:50;;;;;;;7.28;2.85;;;17.40;78.00;;;;;;5052261;28;20362;-67
2023/10/08 06:36:16;;;;;;;5.70;2.30;;;17.30;77.90;;;;;;5046995;28;20021;-67
2023/10/08 06:38:44;;;;;;;6.63;2.60;;;17.30;77.80;;;;;;5033563;28;20401;-67
2023/10/08 06:43:49;;;;;;;6.22;2.08;;;17.30;77.60;;;;;;5030125;28;20363;-67
2023/10/08 06:46:18;;;;;;;6.40;2.47;;;17.30;77.60;;;;;;5045832;28;20453;-68
2023/10/08 06:48:46;;;;;;;5.95;2.28;;;17.30;77.50;;;;;;5028957;28;20160;-68
2023/10/08 06:51:17;;;;;;;8.68;2.70;;;17.30;77.40;;;;;;5029530;28;20029;-67
2023/10/08 06:53:48;;;;;;;7.38;2.58;;;17.30;77.20;;;;;;5027105;28;20354;-68
2023/10/08 06:56:15;;;;;;;9.02;2.67;;;17.30;77.00;;;;;;5045406;28;20033;-67
2023/10/08 06:58:53;;;;;;;7.22;2.85;;;17.30;77.00;;;;;;5042247;28;20028;-68
2023/10/08 07:01:22;;;;;;;6.80;2.67;;;17.30;77.00;;;;;;5054847;28;20389;-68
2023/10/08 07:03:51;;;;;;;5.60;2.50;;;17.30;76.90;;;;;;5049048;28;20061;-68
2023/10/08 07:06:31;;;;;;;8.07;2.58;;;17.30;76.90;;;;;;5033564;28;20091;-68
2023/10/08 07:08:59;;;;;;;5.95;2.17;;;17.30;76.80;;;;;;5032674;28;20033;-68
2023/10/08 07:11:26;;;;;;;6.55;2.90;;;17.30;76.70;;;;;;5036099;28;20033;-67
2023/10/08 07:13:52;;;;;;;7.30;2.70;;;17.40;76.60;;;;;;5036474;28;20076;-68
2023/10/08 07:16:20;;;;;;;6.50;2.80;;;17.30;76.40;;;;;;5034946;28;20072;-68
2023/10/08 07:18:54;;;;;;;6.80;3.40;;;17.30;76.40;;;;;;5030989;28;20020;-68
2023/10/08 07:21:28;;;;;;;6.53;3.33;;;17.30;76.40;;;;;;5029143;28;20029;-67
2023/10/08 07:23:59;;;;;;;8.40;3.58;;;17.30;76.40;;;;;;5031858;28;20104;-68
2023/10/08 07:26:38;;;;;;;7.63;3.03;;;17.30;76.30;;;;;;5042897;28;20037;-68
2023/10/08 07:29:08;;;;;;;8.57;3.88;;;17.40;76.30;;;;;;5029305;28;20052;-66
2023/10/08 07:31:36;;;;;;;6.30;3.15;;;17.30;76.20;;;;;;5029554;28;20043;-67
2023/10/08 07:34:18;;;;;;;6.45;3.08;;;17.30;76.10;;;;;;5040939;28;20036;-67
2023/10/08 07:36:49;;;;;;;6.63;3.50;;;17.30;76.10;;;;;;5031802;28;20045;-68
2023/10/08 07:39:33;;;;;;;7.35;3.42;;;17.30;76.00;;;;;;5039281;28;20457;-68
2023/10/08 07:42:08;;;;;;;6.88;3.47;;;17.30;76.00;;;;;;5037643;28;20345;-68
2023/10/08 07:44:38;;;;;;;7.03;3.88;;;17.30;75.90;;;;;;5039428;28;20123;-68
2023/10/08 07:47:09;;;;;;;6.73;3.53;;;17.40;76.00;;;;;;5053927;28;20033;-68
2023/10/08 07:49:36;;;;;;;6.40;3.30;;;17.30;75.90;;;;;;5054268;28;20314;-68
2023/10/08 07:52:04;;;;;;;7.32;3.20;;;17.40;75.90;;;;;;5054176;28;20066;-68
2023/10/08 07:54:34;;;;;;;7.85;4.30;;;17.30;75.90;;;;;;5050510;28;20434;-68
2023/10/08 07:57:11;;;;;;;7.25;3.83;;;17.30;75.90;;;;;;5045003;28;20474;-67
2023/10/08 07:59:42;;;;;;;6.68;3.55;;;17.30;75.80;;;;;;5053855;28;20033;-67
2023/10/08 08:02:12;;;;;;;7.93;4.27;;;17.30;75.80;;;;;;5053975;28;20029;-68
2023/10/08 08:04:46;;;;;;;9.18;4.75;;;17.30;75.70;;;;;;5051155;28;20120;-67
2023/10/08 08:07:15;;;;;;;9.27;5.32;;;17.30;75.70;;;;;;5042230;28;20028;-68
2023/10/08 08:09:58;;;;;;;8.02;4.68;;;17.30;75.70;;;;;;5048574;28;20029;-68
2023/10/08 08:12:28;;;;;;;8.20;4.85;;;17.30;75.60;;;;;;5053689;28;20096;-68
2023/10/08 08:14:54;;;;;;;8.80;5.30;;;17.30;75.80;;;;;;5049959;28;20022;-68
2023/10/08 08:17:22;;;;;;;9.18;5.30;;;17.30;75.90;;;;;;5067791;28;20029;-68
2023/10/08 08:19:50;;;;;;;9.25;5.70;;;17.20;75.90;;;;;;5053582;28;20029;-68
2023/10/08 08:22:31;;;;;;;9.73;5.50;;;17.30;76.10;;;;;;5054597;28;20025;-66
2023/10/08 08:25:15;;;;;;;9.77;5.57;;;17.30;76.10;;;;;;5049876;28;20057;-68
2023/10/08 08:27:46;;;;;;;10.38;5.70;;;17.30;76.30;;;;;;5043239;28;20087;-68
2023/10/08 08:30:19;;;;;;;9.98;5.60;;;17.30;76.50;;;;;;5047381;28;20057;-68
2023/10/08 08:32:49;;;;;;;10.30;5.88;;;17.20;76.70;;;;;;5027602;28;20096;-68
2023/10/08 08:35:16;;;;;;;9.88;6.25;;;17.30;77.00;;;;;;5054466;28;20036;-68
2023/10/08 08:37:42;;;;;;;10.38;5.47;;;17.30;77.20;;;;;;5036917;28;20434;-68
2023/10/08 08:40:09;;;;;;;11.70;5.80;;;17.20;77.40;;;;;;5033340;28;20048;-68
2023/10/08 08:42:36;;;;;;;10.05;5.45;;;17.20;77.50;;;;;;5054947;28;20028;-68
2023/10/08 08:45:09;;;;;;;8.35;4.22;;;17.20;77.60;;;;;;5044099;28;20342;-68
2023/10/08 08:47:40;;;;;;;9.43;4.38;;;17.20;77.70;;;;;;5057219;28;20035;-68
2023/10/08 08:50:10;;;;;;;8.65;4.60;;;17.20;77.80;;;;;;5051971;28;20026;-68
2023/10/08 08:52:39;;;;;;;9.82;4.95;;;17.30;78.00;;;;;;5065619;28;20450;-68
2023/10/08 08:55:17;;;;;;;8.60;4.55;;;17.30;78.00;;;;;;5056861;28;20032;-68
2023/10/08 08:57:50;;;;;;;9.20;4.63;;;17.30;78.10;;;;;;5058149;28;20094;-68
2023/10/08 09:00:18;;;;;;;8.82;4.35;;;17.30;78.00;;;;;;5056791;28;20053;-68
2023/10/08 09:02:49;;;;;;;8.73;3.72;;;17.20;77.90;;;;;;5032084;28;20163;-68
2023/10/08 09:05:34;;;;;;;8.02;3.88;;;17.30;77.80;;;;;;5039613;28;20361;-68
2023/10/08 09:08:06;;;;;;;8.50;3.13;;;17.30;77.70;;;;;;5035839;28;20029;-68
2023/10/08 09:10:50;;;;;;;7.82;3.05;;;17.30;77.50;;;;;;5033533;28;20033;-68
2023/10/08 09:13:23;;;;;;;7.63;2.88;;;17.40;77.30;;;;;;5036759;28;20025;-68
2023/10/08 09:15:49;;;;;;;8.52;3.28;;;17.40;77.10;;;;;;5032544;28;20459;-67
2023/10/08 09:18:15;;;;;;;6.72;2.38;;;17.40;76.90;;;;;;5031338;28;20039;-68
2023/10/08 09:20:43;;;;;;;7.70;2.72;;;17.40;76.60;;;;;;5042655;28;20361;-67
2023/10/08 09:23:14;;;;;;;6.07;2.20;;;17.50;76.30;;;;;;5039691;28;20124;-68
2023/10/08 09:25:41;;;;;;;5.85;2.28;;;17.50;75.90;;;;;;5046430;28;20459;-67
2023/10/08 09:28:08;;;;;;;7.65;2.72;;;17.50;75.80;;;;;;5032203;28;20049;-67
2023/10/08 09:30:44;;;;;;;6.82;2.20;;;17.60;75.50;;;;;;5031832;28;20033;-67
2023/10/08 09:33:17;;;;;;;5.55;2.15;;;17.70;75.10;;;;;;5029538;28;20021;-68
2023/10/08 09:35:44;;;;;;;5.22;1.80;;;17.70;74.80;;;;;;5033749;28;20120;-68
2023/10/08 09:38:10;;;;;;;7.70;2.35;;;17.70;74.70;;;;;;5047047;28;20021;-68
2023/10/08 09:40:43;;;;;;;7.90;2.42;;;17.70;74.60;;;;;;5034968;28;20079;-68
2023/10/08 09:43:13;;;;;;;5.60;1.90;;;17.70;74.50;;;;;;5033185;28;20080;-68
2023/10/08 09:45:47;;;;;;;6.57;2.03;;;17.70;74.40;;;;;;5033386;28;20029;-68
2023/10/08 09:48:17;;;;;;;6.70;1.80;;;17.80;74.20;;;;;;5009729;28;20112;-68
2023/10/08 09:50:44;;;;;;;9.02;2.22;;;17.80;74.10;;;;;;5029249;28;20414;-68
2023/10/08 09:53:19;;;;;;;7.68;2.20;;;17.80;73.80;;;;;;5031424;28;20037;-68
2023/10/08 09:55:56;;;;;;;6.88;2.22;;;17.80;73.60;;;;;;5032011;28;20518;-68
2023/10/08 09:58:27;;;;;;;5.75;2.33;;;17.80;73.50;;;;;;5045054;28;20498;-69
2023/10/08 10:00:56;;;;;;;6.20;2.20;;;17.90;73.40;;;;;;5045973;28;20068;-68
2023/10/08 10:03:23;;;;;;;5.13;1.90;;;17.90;73.40;;;;;;5020527;28;20060;-68
2023/10/08 10:05:50;;;;;;;4.50;1.90;;;17.90;73.20;;;;;;5032220;28;20044;-68
2023/10/08 10:08:16;;;;;;;6.88;2.00;;;18.00;73.00;;;;;;5047512;28;20520;-68
2023/10/08 10:10:47;;;;;;;7.57;2.22;;;18.00;72.80;;;;;;5030407;28;20033;-68
2023/10/08 10:13:15;;;;;;;;;;;18.00;72.70;;;;;;5031659;28;20026;-69
2023/10/08 10:15:43;;;;;;;5.05;1.70;;;18.00;72.70;;;;;;5031203;28;19968;-68
2023/10/08 10:18:15;;;;;;;6.75;2.00;;;18.00;72.60;;;;;;5032040;28;20096;-68
2023/10/08 10:21:00;;;;;;;6.13;1.88;;;18.00;72.30;;;;;;5029109;28;20025;-69
2023/10/08 10:23:45;;;;;;;6.10;2.00;;;18.10;72.20;;;;;;5031113;28;20029;-68
2023/10/08 10:26:40;;;;;;;5.70;1.80;;;18.10;72.00;;;;;;5029277;28;20029;-68
2023/10/08 10:29:14;;;;;;;4.43;1.80;;;18.10;72.00;;;;;;5028487;28;20049;-68
2023/10/08 10:31:44;;;;;;;5.90;1.67;;;18.10;72.00;;;;;;5030397;28;20171;-68
2023/10/08 10:34:22;;;;;;;5.57;1.90;;;18.10;71.80;;;;;;5044543;28;20033;-68
2023/10/08 10:36:55;;;;;;;4.65;1.50;;;18.20;71.60;;;;;;5030699;28;20159;-68
2023/10/08 10:39:28;;;;;;;5.10;1.90;;;18.30;71.60;;;;;;5028163;28;20033;-68
2023/10/08 10:41:57;;;;;;;5.18;2.05;;;18.30;71.40;;;;;;5025860;28;20052;-68
2023/10/08 10:44:24;;;;;;;6.18;2.20;;;18.40;71.30;;;;;;5028061;28;20072;-68
2023/10/08 10:46:50;;;;;;;6.28;2.10;;;18.40;71.10;;;;;;5031667;28;20026;-68
2023/10/08 10:49:30;;;;;;;5.63;2.10;;;18.40;70.80;;;;;;5030437;28;20033;-68
2023/10/08 10:51:57;;;;;;;6.88;2.00;;;18.40;70.60;;;;;;5030576;28;20025;-68
2023/10/08 10:54:35;;;;;;;3.90;1.73;;;18.40;70.60;;;;;;5044259;28;20021;-68
2023/10/08 10:57:26;;;;;;;5.00;1.70;;;18.50;70.50;;;;;;5026147;28;20473;-68
2023/10/08 10:59:53;;;;;;;6.03;1.83;;;18.50;70.40;;;;;;5030044;28;20037;-68
2023/10/08 11:02:30;;;;;;;5.22;1.77;;;18.50;70.20;;;;;;5029882;28;20025;-68
2023/10/08 11:05:07;;;;;;;5.80;1.70;;;18.60;70.30;;;;;;5027731;28;20111;-68
2023/10/08 11:07:34;;;;;;;3.80;1.60;;;18.60;70.10;;;;;;5031656;28;20025;-68
2023/10/08 11:10:00;;;;;;;4.20;1.55;;;18.60;69.90;;;;;;5041725;28;20079;-68
2023/10/08 11:12:46;;;;;;;5.60;1.83;;;18.60;69.80;;;;;;5030953;28;20034;-68
2023/10/08 11:15:15;;;;;;;4.05;1.50;;;18.60;69.60;;;;;;5041557;28;20323;-68
2023/10/08 11:17:42;;;;;;;4.05;1.70;;;18.60;69.70;;;;;;5046507;28;20343;-68
2023/10/08 11:20:25;;;;;;;6.78;1.80;;;18.60;69.60;;;;;;5042444;28;20087;-67
2023/10/08 11:22:53;;;;;;;5.85;1.70;;;18.70;69.50;;;;;;5010988;28;20457;-67
2023/10/08 11:25:24;;;;;;;4.68;1.70;;;18.60;69.70;;;;;;5012752;28;20060;-66
2023/10/08 11:28:01;;;;;;;6.47;1.92;;;18.60;69.60;;;;;;5045209;28;20045;-66
2023/10/08 11:30:31;;;;;;;5.05;2.10;;;18.60;70.10;;;;;;5023140;28;20025;-66
2023/10/08 11:33:00;;;;;;;5.82;1.98;;;18.60;69.50;;;;;;5031775;28;20018;-66
2023/10/08 11:35:28;;;;;;;6.55;1.90;;;18.60;69.50;;;;;;5050209;28;20531;-66
2023/10/08 11:38:00;;;;;;;5.75;2.45;;;18.70;69.50;;;;;;5050767;28;20053;-66
2023/10/08 11:40:47;;;;;;;5.38;1.88;;;18.70;69.30;;;;;;5033592;28;20029;-66
2023/10/08 11:43:15;;;;;;;7.40;2.40;;;18.70;69.40;;;;;;5034191;28;20068;-66
2023/10/08 11:45:48;;;;;;;5.65;2.38;;;18.70;69.20;;;;;;5045988;28;20354;-66
2023/10/08 11:48:25;;;;;;;5.90;2.33;;;18.70;69.10;;;;;;5049492;28;20135;-66
2023/10/08 11:50:52;;;;;;;4.47;1.83;;;18.70;69.20;;;;;;5053837;28;20033;-66
2023/10/08 11:53:19;;;;;;;5.63;2.00;;;18.70;69.30;;;;;;5053995;28;20074;-66
2023/10/08 11:55:47;;;;;;;5.43;2.28;;;18.70;69.30;;;;;;5038080;28;20017;-66
2023/10/08 11:58:17;;;;;;;5.93;2.00;;;18.60;69.40;;;;;;5049675;28;20026;-65
2023/10/08 12:00:44;;;;;;;7.97;2.08;;;18.60;69.50;;;;;;5036807;28;20029;-66
2023/10/08 12:03:11;;;;;;;4.40;1.95;;;18.60;69.70;;;;;;5032404;28;20061;-65
2023/10/08 12:05:46;;;;;;;6.38;1.95;;;18.50;69.70;;;;;;5032651;28;20025;-65
2023/10/08 12:08:16;;;;;;;4.47;1.58;;;18.50;69.90;;;;;;5028313;28;20100;-65
2023/10/08 12:10:43;;;;;;;5.85;2.33;;;18.50;69.90;;;;;;5029604;28;20033;-67
2023/10/08 12:13:10;;;;;;;5.07;1.90;;;18.40;70.00;;;;;;5049242;28;20029;-67
2023/10/08 12:15:41;;;;;;;5.55;2.10;;;18.40;70.20;;;;;;5025934;28;20594;-67
2023/10/08 12:18:24;;;;;;;;;;;18.40;70.20;;;;;;5030637;28;20088;-68
2023/10/08 12:20:50;;;;;;;5.28;2.20;;;18.40;70.40;;;;;;5024961;28;19913;-68
2023/10/08 12:23:26;;;;;;;5.07;2.05;;;18.40;70.50;;;;;;5028802;28;20171;-68
2023/10/08 12:25:56;;;;;;;5.80;2.03;;;18.50;70.60;;;;;;5026714;28;20472;-69
2023/10/08 12:28:23;;;;;;;5.38;2.20;;;18.50;70.50;;;;;;5021365;28;20103;-68
2023/10/08 12:30:52;;;;;;;5.78;2.53;;;18.50;70.60;;;;;;5028964;28;20044;-69
2023/10/08 12:33:19;;;;;;;5.28;2.28;;;18.50;70.70;;;;;;5025644;28;20071;-69
2023/10/08 12:35:47;;;;;;;7.60;2.53;;;18.50;70.80;;;;;;5038943;28;20052;-68
2023/10/08 12:38:14;;;;;;;5.03;2.42;;;18.50;70.90;;;;;;5028535;28;20335;-68
2023/10/08 12:40:47;;;;;;;6.10;2.35;;;18.50;71.00;;;;;;5028953;28;20429;-68
2023/10/08 12:43:18;;;;;;;6.70;2.28;;;18.50;71.10;;;;;;5024240;28;20030;-68
2023/10/08 12:45:51;;;;;;;6.90;2.60;;;18.50;71.10;;;;;;5024904;28;20022;-68
2023/10/08 12:48:21;;;;;;;7.38;2.30;;;18.50;71.30;;;;;;5029282;28;20025;-69
2023/10/08 12:50:56;;;;;;;5.70;2.63;;;18.50;71.40;;;;;;5030207;28;20033;-69
2023/10/08 12:53:26;;;;;;;7.00;2.30;;;18.40;71.40;;;;;;5042916;28;20031;-68
2023/10/08 12:55:57;;;;;;;8.05;2.58;;;18.40;71.60;;;;;;5029403;28;20022;-68
2023/10/08 12:58:29;;;;;;;6.18;2.10;;;18.40;71.70;;;;;;5028258;28;20029;-68
2023/10/08 13:01:03;;;;;;;6.82;2.10;;;18.40;71.80;;;;;;5020524;28;20383;-68
2023/10/08 13:03:31;;;;;;;4.45;1.80;;;18.40;72.00;;;;;;5030501;28;20043;-68
2023/10/08 13:06:03;;;;;;;5.13;2.08;;;18.40;72.20;;;;;;5027184;28;20096;-67
2023/10/08 13:08:32;;;;;;;5.35;2.28;;;18.40;72.50;;;;;;5041107;28;20029;-69
2023/10/08 13:11:00;;;;;;;4.75;1.92;;;18.40;72.30;;;;;;5026398;28;20046;-70
2023/10/08 13:13:32;;;;;;;4.35;1.95;;;18.40;72.40;;;;;;5041278;28;20422;-71
2023/10/08 13:16:02;;;;;;;4.07;1.70;;;18.40;72.50;;;;;;5052767;28;20021;-71
2023/10/08 13:18:29;;;;;;;4.43;2.15;;;18.40;72.60;;;;;;5053575;28;20040;-71
2023/10/08 13:20:55;;;;;;;6.25;2.20;;;18.30;72.80;;;;;;5052809;28;20029;-71
2023/10/08 13:23:23;;;;;;;4.28;2.15;;;18.30;73.00;;;;;;5046811;28;20029;-71
2023/10/08 13:25:55;;;;;;;4.75;2.05;;;18.30;73.00;;;;;;5054482;28;20037;-71
2023/10/08 13:28:26;;;;;;;5.63;2.10;;;18.30;73.20;;;;;;5056445;28;20045;-71
2023/10/08 13:30:52;;;;;;;;;;;18.30;73.40;;;;;;5057142;28;20053;-71
2023/10/08 13:33:28;;;;;;;3.10;1.52;;;18.20;73.40;;;;;;5054956;28;20257;-71
2023/10/08 13:35:55;;;;;;;5.88;1.70;;;18.20;73.60;;;;;;5054960;28;20028;-71
2023/10/08 13:38:20;;;;;;;4.85;1.80;;;18.20;73.70;;;;;;5057210;28;20054;-71
2023/10/08 13:41:02;;;;;;;6.00;2.13;;;18.20;73.80;;;;;;5056569;28;20040;-71
2023/10/08 13:43:35;;;;;;;5.25;2.00;;;18.20;73.90;;;;;;5050419;28;20116;-71
2023/10/08 13:46:04;;;;;;;4.03;1.52;;;18.20;73.90;;;;;;5046766;28;20459;-71
2023/10/08 13:48:32;;;;;;;5.95;1.85;;;18.30;74.00;;;;;;5045052;28;20119;-71
2023/10/08 13:51:00;;;;;;;5.13;1.75;;;18.30;74.00;;;;;;5056236;28;20058;-71
2023/10/08 13:53:29;;;;;;;4.63;1.70;;;18.30;74.10;;;;;;5056072;28;20020;-71
2023/10/08 13:55:58;;;;;;;4.75;1.90;;;18.30;74.20;;;;;;5056021;28;20327;-71
2023/10/08 13:58:24;;;;;;;4.75;1.85;;;18.30;74.20;;;;;;5049862;28;20028;-71
2023/10/08 14:00:52;;;;;;;5.28;2.00;;;18.30;74.20;;;;;;5045678;28;20036;-71
2023/10/08 14:03:21;;;;;;;7.65;2.38;;;18.30;74.20;;;;;;5057158;28;20462;-71
2023/10/08 14:05:51;;;;;;;4.20;1.75;;;18.30;74.30;;;;;;5028330;28;20033;-71
2023/10/08 14:08:18;;;;;;;4.82;2.30;;;18.30;74.40;;;;;;5031376;28;20068;-70
2023/10/08 14:10:45;;;;;;;4.90;1.92;;;18.30;74.50;;;;;;5030502;28;20037;-69
2023/10/08 14:13:11;;;;;;;7.93;2.22;;;18.20;74.50;;;;;;5045951;28;20116;-69